Domov               UVHVVR             MKGP            O straneh              
ZDRAVSTVENO VARSTVO RASTLIN
  MREŽA AGROMET. POSTAJ
 ► PROGNOSTIČNA OBVESTILA
AGROMETEOROLOŠKI PODATKI -
ARSO
OBVLADOVANJE TVEGANJ ZARADI
NEUGODNIH VREMENSKIH RAZMER
  ► NARAVNE NESREČE
  ► SUŠA/MOČA
  ► NAMAKANJE
  ► ŽLED (gozdarstvo)
KARTOGRAFSKI PRIKAZI
SPLETNE POVEZAVE
PROJEKTI IN PUBLIKACIJE

AGROMETEOROLOŠKA MREŽA: VREMENSKE POSTAJE IN FENOLOŠKA OPAZOVANJA

Pregled podatkov za lokacijo Gabernik-Rogaška, meteorološka postaja 37800

Pregled senzorjev na lokaciji

ID Ime Zadnja
vrednost
Datum
zadnje
spremembe
Tip
senzorja
1828 Omočenost lista (U) 10 U 16.7.2018 00:00 A730WET
1829 Padavine (mm) 0 mm 16.7.2018 00:00 Rain-O-Matic
1827 Relativna vlaga 2 m (% RH) 92,33 % RH 16.7.2018 00:00 50YA
1826 Temperatura 2 m (°C) 16,21 °C 16.7.2018 00:00 50YA

Pregled podatkov zadnjih 24 ur

Zap.
št.
Datum in čas Gabernik-Rogaška
Omočenost
lista
Padavine Relativna
vlaga
2
m
Temperatura
2
m
1 16.7.2018 00:30
2 16.7.2018 00:00
3 15.7.2018 23:30
4 15.7.2018 23:00 10 0 92,3 16,2
5 15.7.2018 22:30 10 0 91,3 16,7
6 15.7.2018 22:00 10 0 86,2 17
7 15.7.2018 21:30 10 0 87,2 17,2
8 15.7.2018 21:00 5 0 85,9 17,3
9 15.7.2018 20:30 1 0 84 17,7
10 15.7.2018 20:00 1 0 85 18,2
11 15.7.2018 19:30 0 0 76,8 18,8
12 15.7.2018 19:00 0 0 80,5 19,4
13 15.7.2018 18:30 0 0 80,7 21,4
14 15.7.2018 18:00 0 0 82,1 21,5
15 15.7.2018 17:30 0 0 81,2 21,2
16 15.7.2018 17:00 0 0 80,2 21,3
17 15.7.2018 16:30 0 0 80,5 21,1
18 15.7.2018 16:00 0 0 83,3 21,1
19 15.7.2018 15:30 0 0 83,1 22
20 15.7.2018 15:00 0 0 77 24
21 15.7.2018 14:30 0 0 80,4 23,5
22 15.7.2018 14:00 0 0 83,8 21,9
23 15.7.2018 13:30 0 0 85,5 21,1
24 15.7.2018 13:00 0 0 91,7 21,1
25 15.7.2018 12:30 0 0,2 97,5 19,4
26 15.7.2018 12:00 7 1,4 97,7 17,7
27 15.7.2018 11:30 9 1,6 96,2 16,8
28 15.7.2018 11:00 10 2 94,1 17,7
29 15.7.2018 10:30 10 1 88,5 19,4
30 15.7.2018 10:00 0 0 84,1 20,5
31 15.7.2018 09:30 0 0 83 21,1
32 15.7.2018 09:00 0 0 81,8 21,3
33 15.7.2018 08:30 0 0 82 21,1
34 15.7.2018 08:00 0 0 85,8 20,2
35 15.7.2018 07:30 0 0 87,7 19,4
36 15.7.2018 07:00 0 0 87,8 19
37 15.7.2018 06:30 0 0 90,5 18,2
38 15.7.2018 06:00 0 0 91,5 17,6
39 15.7.2018 05:30 0 0 90,3 17,4
40 15.7.2018 05:00 0 0 85,2 17,8
41 15.7.2018 04:30 0 0 85,2 17,7
42 15.7.2018 04:00 0 0 88 17
43 15.7.2018 03:30 1 0 89 16,9
44 15.7.2018 03:00 0 0 85,8 17,5
45 15.7.2018 02:30 0 0 85,7 17,6
46 15.7.2018 02:00 0 0 84,7 17,7
47 15.7.2018 01:30 0 0 82,6 18,1
48 15.7.2018 01:00 0 0 85,3 17,8
© 2011 Ministrstvo za kmetijstvo, gozdarstvo in prehrano. Vse pravice pridržane.